»·PEaware :: DAL2189 KSLC-KPDX

DAL2189 :: KSLC-KPDX

FLIGHT INFORMATION

Flight Status: Arrived
Operator:
Delta Air Lines
More flights by this operator :: More flights under this callsign
Pilot: Joe P. (13940)
Aircraft: MCDONNELL-DOUGLAS MD-82
(MD82)
More flights by this aircraft type
Origin: KSLC Salt Lake City Intl
United States
Destination: KPDX Portland Intl
United States
More flights between these airports :: More routes between these airports
Route: CGULL1 TWF J15 BOI J163 BKE JOTBA HHOOD4
File this flight plan on PilotEdge
Remarks: SEL / ABCD KSEA -PBN / B3B4B5D3D4 DOF / 180714 REG / N904DL EET / KZSE0055
Altitude:
(Current/Filed)
340ft
Speed:
(Current/Filed)
452kts
Departed: 15-Jul-18 05:32 AM
Arrived: 15-Jul-18 07:04 AM
Distance/Time
Traveled:
546nm/1:32
Distance/Time
To Go:
Arrived

Flight Plot

Page will automatically refresh every two minutes.

Flight plan parsing failed; only flown route is shown


Map Options




Map Legend


Flown Route
Filed Route
Departure Airport
Arrival Airport
Navaid (VOR, NDB)
Fix

Horizontal Profiles

Position Reports

Time Latitude Longitude Heading Altitude Ground
Speed
15-Jul-18 04:54 40.785586 -111.978056 231 4236ft 0kts
15-Jul-18 04:55 40.785586 -111.978056 231 4236ft 0kts
15-Jul-18 04:56 40.785586 -111.978056 231 4236ft 0kts
15-Jul-18 04:57 40.785586 -111.978056 231 4236ft 0kts
15-Jul-18 04:58 40.785586 -111.978056 231 4236ft 0kts
15-Jul-18 04:59 40.785586 -111.978056 231 4236ft 0kts
15-Jul-18 05:00 40.785586 -111.978056 231 4236ft 0kts
15-Jul-18 05:01 40.785586 -111.978056 231 4236ft 0kts
15-Jul-18 05:02 40.785586 -111.978056 231 4236ft 0kts
15-Jul-18 05:03 40.785586 -111.978056 231 4236ft 0kts
15-Jul-18 05:04 40.785586 -111.978056 231 4236ft 0kts
15-Jul-18 05:05 40.785586 -111.978056 231 4236ft 0kts
15-Jul-18 05:06 40.785586 -111.978056 231 4236ft 0kts
15-Jul-18 05:07 40.785586 -111.978056 231 4236ft 0kts
15-Jul-18 05:08 40.785586 -111.978056 231 4236ft 0kts
15-Jul-18 05:09 40.785586 -111.978056 231 4236ft 0kts
15-Jul-18 05:10 40.785586 -111.978056 231 4236ft 0kts
15-Jul-18 05:11 40.785586 -111.978056 231 4236ft 0kts
15-Jul-18 05:12 40.785586 -111.978056 231 4236ft 0kts
15-Jul-18 05:13 40.785586 -111.978056 231 4236ft 0kts
15-Jul-18 05:14 40.785586 -111.978056 231 4236ft 0kts
15-Jul-18 05:15 40.785586 -111.978056 231 4236ft 0kts
15-Jul-18 05:16 40.785586 -111.978056 231 4236ft 0kts
15-Jul-18 05:17 40.785586 -111.978056 231 4236ft 0kts
15-Jul-18 05:18 40.785586 -111.978056 231 4236ft 0kts
15-Jul-18 05:19 40.785586 -111.978056 231 4236ft 0kts
15-Jul-18 05:20 40.785586 -111.978056 231 4236ft 0kts
15-Jul-18 05:21 40.785586 -111.978056 231 4236ft 0kts
15-Jul-18 05:22 40.785586 -111.978056 231 4236ft 0kts
15-Jul-18 05:23 40.785586 -111.978056 231 4236ft 0kts
15-Jul-18 05:24 40.785850 -111.977492 250 4236ft 2kts
15-Jul-18 05:25 40.785860 -111.976528 288 4236ft 0kts
15-Jul-18 05:26 40.785860 -111.976528 288 4236ft 0kts
15-Jul-18 05:27 40.785860 -111.976528 288 4236ft 0kts
15-Jul-18 05:28 40.788522 -111.977025 356 4236ft 16kts
15-Jul-18 05:29 40.793682 -111.977460 355 4236ft 18kts
15-Jul-18 05:30 40.800367 -111.978358 354 4236ft 28kts
15-Jul-18 05:31 40.806256 -111.979026 354 4236ft 11kts
15-Jul-18 05:32 40.807113 -111.976812 163 4236ft 6kts
15-Jul-18 05:33 40.781264 -111.973942 174 4448ft 176kts
15-Jul-18 05:34 40.746078 -112.005884 279 6378ft 216kts
15-Jul-18 05:35 40.799642 -112.067577 327 7385ft 283kts
15-Jul-18 05:36 40.867486 -112.124531 326 9083ft 292kts
15-Jul-18 05:37 40.936332 -112.182400 327 10854ft 293kts
15-Jul-18 05:38 41.005979 -112.241035 327 12768ft 299kts
15-Jul-18 05:39 41.072596 -112.309381 298 14280ft 328kts
15-Jul-18 05:40 41.117165 -112.423583 305 15944ft 357kts
15-Jul-18 05:41 41.183453 -112.523695 317 18089ft 367kts
15-Jul-18 05:42 41.265519 -112.607507 322 20028ft 378kts
15-Jul-18 05:43 41.340516 -112.707283 309 21808ft 386kts
15-Jul-18 05:44 41.412176 -112.815740 310 23489ft 395kts
15-Jul-18 05:45 41.485164 -112.926902 309 25094ft 402kts
15-Jul-18 05:46 41.559282 -113.039955 309 26555ft 406kts
15-Jul-18 05:47 41.633610 -113.154639 309 27755ft 411kts
15-Jul-18 05:48 41.709115 -113.270936 308 28801ft 415kts
15-Jul-18 05:49 41.784873 -113.388140 307 29694ft 418kts
15-Jul-18 05:50 41.860237 -113.505345 307 30871ft 412kts
15-Jul-18 05:51 41.934897 -113.621357 307 31888ft 407kts
15-Jul-18 05:52 42.008231 -113.735894 306 32859ft 402kts
15-Jul-18 05:53 42.080272 -113.849120 305 33752ft 397kts
15-Jul-18 05:54 42.152316 -113.962427 305 34194ft 401kts
15-Jul-18 05:55 42.224601 -114.077294 305 34194ft 400kts
15-Jul-18 05:56 42.296980 -114.192627 305 34195ft 401kts
15-Jul-18 05:57 42.369270 -114.307762 305 34197ft 402kts
15-Jul-18 05:58 42.441686 -114.423495 305 34198ft 402kts
15-Jul-18 05:59 42.514822 -114.538613 306 34198ft 403kts
15-Jul-18 06:00 42.588558 -114.653343 306 34198ft 405kts
15-Jul-18 06:01 42.662797 -114.768747 306 34196ft 404kts
15-Jul-18 06:02 42.736909 -114.884067 306 34197ft 406kts
15-Jul-18 06:03 42.811451 -114.999947 306 34196ft 406kts
15-Jul-18 06:04 42.885404 -115.116024 306 34189ft 406kts
15-Jul-18 06:05 42.959283 -115.232646 306 34176ft 406kts
15-Jul-18 06:06 43.033291 -115.350064 306 34161ft 407kts
15-Jul-18 06:07 43.106913 -115.467314 305 34142ft 406kts
15-Jul-18 06:08 43.180089 -115.585985 305 34142ft 407kts
15-Jul-18 06:09 43.253716 -115.704047 305 34141ft 407kts
15-Jul-18 06:10 43.327454 -115.822066 306 34141ft 408kts
15-Jul-18 06:11 43.401192 -115.941004 305 34136ft 408kts
15-Jul-18 06:12 43.474431 -116.060069 305 34128ft 409kts
15-Jul-18 06:13 43.548343 -116.179956 307 34119ft 410kts
15-Jul-18 06:14 43.632141 -116.287928 313 34120ft 414kts
15-Jul-18 06:15 43.719121 -116.392063 313 34124ft 414kts
15-Jul-18 06:16 43.805650 -116.498000 312 34127ft 414kts
15-Jul-18 06:17 43.891541 -116.604188 312 34129ft 414kts
15-Jul-18 06:18 43.977926 -116.711007 312 34128ft 415kts
15-Jul-18 06:19 44.064080 -116.818033 312 34125ft 416kts
15-Jul-18 06:20 44.150038 -116.925651 312 34124ft 417kts
15-Jul-18 06:21 44.236574 -117.033990 312 34130ft 418kts
15-Jul-18 06:22 44.322849 -117.142604 312 34144ft 418kts
15-Jul-18 06:23 44.409527 -117.251891 312 34165ft 419kts
15-Jul-18 06:24 44.495428 -117.361843 312 34185ft 419kts
15-Jul-18 06:25 44.581826 -117.471439 312 34200ft 419kts
15-Jul-18 06:26 44.668305 -117.582141 312 34211ft 420kts
15-Jul-18 06:27 44.754362 -117.692733 312 34216ft 420kts
15-Jul-18 06:28 44.832128 -117.812013 290 34221ft 406kts
15-Jul-18 06:29 44.865479 -117.962622 277 34219ft 401kts
15-Jul-18 06:30 44.882924 -118.118160 276 34218ft 404kts
15-Jul-18 06:31 44.903311 -118.274165 277 34219ft 404kts
15-Jul-18 06:32 44.923427 -118.430182 277 34219ft 404kts
15-Jul-18 06:33 44.940132 -118.560170 277 34212ft 405kts
15-Jul-18 06:34 44.963052 -118.742987 277 34210ft 405kts
15-Jul-18 06:35 44.982500 -118.899760 277 34210ft 405kts
15-Jul-18 06:36 45.001828 -119.057452 276 34168ft 406kts
15-Jul-18 06:37 45.020498 -119.214921 276 34163ft 407kts
15-Jul-18 06:38 45.039336 -119.372642 276 34164ft 408kts
15-Jul-18 06:39 45.058227 -119.531276 276 34158ft 408kts
15-Jul-18 06:40 45.077143 -119.689429 276 34152ft 408kts
15-Jul-18 06:41 45.092296 -119.821832 276 34148ft 408kts
15-Jul-18 06:42 45.110356 -119.980148 276 34143ft 408kts
15-Jul-18 06:43 45.128269 -120.139472 275 34139ft 411kts
15-Jul-18 06:44 45.143213 -120.300300 275 33920ft 410kts
15-Jul-18 06:45 45.162342 -120.459468 277 31486ft 412kts
15-Jul-18 06:46 45.201345 -120.613487 296 28938ft 419kts
15-Jul-18 06:47 45.259309 -120.754726 295 26258ft 404kts
15-Jul-18 06:48 45.311393 -120.892927 296 23646ft 391kts
15-Jul-18 06:49 45.362598 -121.026805 296 21155ft 378kts
15-Jul-18 06:50 45.411928 -121.155952 296 18761ft 365kts
15-Jul-18 06:51 45.447864 -121.287550 284 16376ft 349kts
15-Jul-18 06:52 45.472023 -121.415542 283 15129ft 306kts
15-Jul-18 06:53 45.495983 -121.537152 283 13273ft 316kts
15-Jul-18 06:54 45.518885 -121.653851 283 11523ft 291kts
15-Jul-18 06:55 45.534591 -121.763693 272 10658ft 293kts
15-Jul-18 06:56 45.537393 -121.873015 270 9202ft 271kts
15-Jul-18 06:57 45.540630 -121.982616 272 7749ft 271kts
15-Jul-18 06:58 45.526657 -122.080253 234 6436ft 243kts
15-Jul-18 06:59 45.489388 -122.155673 232 5926ft 235kts
15-Jul-18 07:00 45.466680 -122.242025 259 4991ft 236kts
15-Jul-18 07:01 45.490912 -122.324799 299 3562ft 236kts
15-Jul-18 07:02 45.520999 -122.408447 301 2469ft 236kts
15-Jul-18 07:03 45.551847 -122.485495 298 1438ft 192kts
15-Jul-18 07:04 45.574962 -122.544736 298 391ft 153kts
15-Jul-18 07:05 45.589020 -122.580899 298 27ft 31kts
15-Jul-18 07:06 45.590207 -122.585909 277 27ft 1kts
15-Jul-18 07:06 45.590283 -122.586741 277 27ft 4kts

Navigation Log

Ident Type
Flight plan parsing failed, navigation log unavailable